createdAt,value
2018-04-28T00:00:04.019Z,67.67
2018-04-28T00:02:32.543Z,67.64
2018-04-28T00:05:01.012Z,67.56
2018-04-28T00:07:29.717Z,67.66
2018-04-28T00:09:58.085Z,67.60
2018-04-28T00:12:26.699Z,67.64
2018-04-28T00:14:55.066Z,67.69
2018-04-28T00:17:23.430Z,67.78
2018-04-28T00:19:57.376Z,67.73
2018-04-28T00:22:27.681Z,67.84
2018-04-28T00:24:56.800Z,67.99
2018-04-28T00:27:29.863Z,67.99
2018-04-28T00:29:58.219Z,67.92
2018-04-28T00:32:26.588Z,67.87
2018-04-28T00:34:58.962Z,67.86
2018-04-28T00:37:27.775Z,68.02
2018-04-28T00:40:02.097Z,67.95
2018-04-28T00:42:46.328Z,68.05
2018-04-28T00:45:18.604Z,67.92
2018-04-28T00:47:51.994Z,68.09
2018-04-28T00:50:31.075Z,68.09
2018-04-28T00:52:59.593Z,68.11
2018-04-28T00:55:31.476Z,68.01
2018-04-28T00:58:05.924Z,68.07
2018-04-28T01:00:35.384Z,68.07
2018-04-28T01:03:05.757Z,68.20
2018-04-28T01:05:40.030Z,68.19
2018-04-28T01:08:08.719Z,68.23
2018-04-28T01:10:37.145Z,68.12
2018-04-28T01:13:15.627Z,68.11
2018-04-28T01:15:44.099Z,68.17
2018-04-28T01:18:29.163Z,68.23
2018-04-28T01:21:02.879Z,68.19
2018-04-28T01:23:48.948Z,68.41
2018-04-28T01:26:23.134Z,68.42
2018-04-28T01:29:08.120Z,68.46
2018-04-28T01:31:38.536Z,68.41
2018-04-28T01:34:17.715Z,68.40
2018-04-28T01:36:52.951Z,68.33
2018-04-28T01:39:32.552Z,68.33
2018-04-28T01:45:08.164Z,68.19
2018-04-28T01:47:39.267Z,68.26
2018-04-28T01:50:08.787Z,68.29
2018-04-28T01:52:38.788Z,68.20
2018-04-28T01:55:10.240Z,68.05
2018-04-28T01:57:41.735Z,68.21
2018-04-28T02:03:10.627Z,68.26
2018-04-28T02:05:51.416Z,68.33
2018-04-28T02:08:20.035Z,68.39
2018-04-28T02:10:52.926Z,68.56
2018-04-28T02:16:23.523Z,68.32
2018-04-28T02:19:02.970Z,68.35
2018-04-28T02:21:34.875Z,68.29
2018-04-28T02:24:26.852Z,68.21
2018-04-28T02:26:56.731Z,68.21
2018-04-28T02:32:21.798Z,68.25
2018-04-28T02:34:55.736Z,68.37
2018-04-28T02:37:31.007Z,68.49
2018-04-28T02:40:11.719Z,68.69
2018-04-28T02:42:41.603Z,68.80
2018-04-28T02:48:27.408Z,68.91
2018-04-28T02:53:53.483Z,68.87
2018-04-28T02:56:26.880Z,68.91
2018-04-28T02:59:12.164Z,68.96
2018-04-28T03:01:51.228Z,68.96
2018-04-28T03:04:31.433Z,68.94
2018-04-28T03:07:08.781Z,68.89
2018-04-28T03:09:44.048Z,68.93
2018-04-28T03:12:22.401Z,68.98
2018-04-28T03:14:51.434Z,68.97
2018-04-28T03:17:27.224Z,68.98
2018-04-28T03:19:56.512Z,69.01
2018-04-28T03:22:25.826Z,69.25
2018-04-28T03:25:10.971Z,69.64
2018-04-28T03:30:42.730Z,70.19
2018-04-28T03:33:29.319Z,70.16
2018-04-28T03:39:02.159Z,70.24
2018-04-28T03:41:32.592Z,70.30
2018-04-28T03:44:10.677Z,70.39
2018-04-28T03:46:45.931Z,70.46
2018-04-28T03:49:21.307Z,70.39
2018-04-28T03:52:01.846Z,70.58
2018-04-28T03:54:35.241Z,70.56
2018-04-28T03:57:33.660Z,70.58
2018-04-28T04:00:14.210Z,70.56
2018-04-28T04:02:55.321Z,70.54
2018-04-28T04:05:35.655Z,70.60
2018-04-28T04:08:17.451Z,70.61
2018-04-28T04:10:55.668Z,70.63
2018-04-28T04:13:35.779Z,70.58
2018-04-28T04:19:23.901Z,70.66
2018-04-28T04:22:16.096Z,70.65
2018-04-28T04:28:02.176Z,70.72
2018-04-28T04:30:31.607Z,70.83
2018-04-28T04:33:10.977Z,70.88
2018-04-28T04:35:48.328Z,70.82
2018-04-28T04:38:25.324Z,70.75
2018-04-28T04:41:15.151Z,70.68
2018-04-28T04:44:01.558Z,70.59
2018-04-28T04:46:39.405Z,70.49
2018-04-28T04:49:11.205Z,70.37
2018-04-28T04:54:38.729Z,70.26
2018-04-28T04:57:19.253Z,70.19
2018-04-28T05:00:22.900Z,70.17
2018-04-28T05:03:12.675Z,70.07
2018-04-28T05:06:05.540Z,70.10
2018-04-28T05:08:40.927Z,69.71
2018-04-28T05:14:34.465Z,69.64
2018-04-28T05:17:18.051Z,69.58
2018-04-28T05:19:59.034Z,69.44
2018-04-28T05:22:51.176Z,69.50
2018-04-28T05:25:31.858Z,69.41
2018-04-28T05:28:06.008Z,69.17
2018-04-28T05:30:57.627Z,69.09
2018-04-28T05:33:33.862Z,68.95
2018-04-28T05:39:24.473Z,68.79
2018-04-28T05:42:06.016Z,68.60
2018-04-28T05:44:36.936Z,68.60
2018-04-28T05:47:17.738Z,68.47
2018-04-28T05:52:53.849Z,68.42
2018-04-28T05:58:41.068Z,68.37
2018-04-28T06:01:09.789Z,68.30
2018-04-28T06:03:45.480Z,68.24
2018-04-28T06:06:26.375Z,68.09
2018-04-28T06:09:15.051Z,67.95
2018-04-28T06:15:03.171Z,67.62
2018-04-28T06:17:53.144Z,67.28
2018-04-28T06:23:23.099Z,66.54
2018-04-28T06:25:52.053Z,65.92
2018-04-28T06:28:20.723Z,64.92
2018-04-28T06:30:49.176Z,64.91
2018-04-28T06:33:17.842Z,64.81
2018-04-28T06:35:46.444Z,63.99
2018-04-28T06:38:14.894Z,63.56
2018-04-28T06:40:43.270Z,62.91
2018-04-28T06:43:12.224Z,62.44
2018-04-28T06:45:40.651Z,62.05
2018-04-28T06:48:09.526Z,61.82
2018-04-28T06:50:38.741Z,61.69
2018-04-28T06:53:07.197Z,61.77
2018-04-28T06:55:35.710Z,62.23
2018-04-28T06:58:04.173Z,62.30
2018-04-28T07:00:32.544Z,62.39
2018-04-28T07:03:01.268Z,62.61
2018-04-28T07:05:29.641Z,62.70
2018-04-28T07:07:58.007Z,62.34
2018-04-28T07:10:26.711Z,62.22
2018-04-28T07:12:55.790Z,61.92
2018-04-28T07:15:24.979Z,61.47
2018-04-28T07:17:53.561Z,61.24
2018-04-28T07:20:22.732Z,60.95
2018-04-28T07:22:51.093Z,60.98
2018-04-28T07:25:19.488Z,61.24
2018-04-28T07:27:47.886Z,61.20
2018-04-28T07:30:16.242Z,61.17
2018-04-28T07:32:44.885Z,60.84
2018-04-28T07:35:13.328Z,60.76
2018-04-28T07:37:41.951Z,60.67
2018-04-28T07:40:10.354Z,60.55
2018-04-28T07:42:39.089Z,60.21
2018-04-28T07:45:07.724Z,60.15
2018-04-28T07:47:36.475Z,59.83
2018-04-28T07:50:05.173Z,59.83
2018-04-28T07:52:33.869Z,59.94
2018-04-28T07:55:02.642Z,59.87
2018-04-28T07:57:31.456Z,59.78
2018-04-28T07:59:59.815Z,59.75
2018-04-28T08:02:28.990Z,59.63
2018-04-28T08:04:57.718Z,59.72
2018-04-28T08:07:26.144Z,59.41
2018-04-28T08:09:54.542Z,60.06
2018-04-28T08:12:22.899Z,60.58
2018-04-28T08:14:51.343Z,60.94
2018-04-28T08:17:19.866Z,61.32
2018-04-28T08:19:48.686Z,61.64
2018-04-28T08:22:17.376Z,61.59
2018-04-28T08:24:45.750Z,61.56
2018-04-28T08:27:14.398Z,61.70
2018-04-28T08:29:42.832Z,61.67
2018-04-28T08:32:11.574Z,61.70
2018-04-28T08:34:40.681Z,61.81
2018-04-28T08:37:09.138Z,61.99
2018-04-28T08:39:37.522Z,62.15
2018-04-28T08:42:05.956Z,62.31
2018-04-28T08:44:34.602Z,62.30
2018-04-28T08:47:03.021Z,62.19
2018-04-28T08:49:31.861Z,62.05
2018-04-28T08:52:01.167Z,61.85
2018-04-28T08:54:29.541Z,61.96
2018-04-28T08:56:57.953Z,62.00
2018-04-28T08:59:38.630Z,61.85
2018-04-28T09:02:07.044Z,61.63
2018-04-28T09:04:35.419Z,61.53
2018-04-28T09:07:15.635Z,61.59
2018-04-28T09:09:44.040Z,61.35
2018-04-28T09:12:12.433Z,61.27
2018-04-28T09:14:40.825Z,61.24
2018-04-28T09:17:09.703Z,60.94
2018-04-28T09:19:38.205Z,60.52
2018-04-28T09:22:06.582Z,60.20
2018-04-28T09:24:35.143Z,59.92
2018-04-28T09:27:03.511Z,59.83
2018-04-28T09:29:31.903Z,59.58
2018-04-28T09:32:00.289Z,59.11
2018-04-28T09:34:28.672Z,58.53
2018-04-28T09:36:57.067Z,58.44
2018-04-28T09:39:25.439Z,58.54
2018-04-28T09:41:53.816Z,58.33
2018-04-28T09:44:22.469Z,58.03
2018-04-28T09:46:50.847Z,58.03
2018-04-28T09:49:19.218Z,58.09
2018-04-28T09:51:48.507Z,58.04
2018-04-28T09:54:17.220Z,57.94
2018-04-28T09:56:45.587Z,57.99
2018-04-28T09:59:14.234Z,57.85
2018-04-28T10:01:45.587Z,57.45
2018-04-28T10:04:19.515Z,57.06
2018-04-28T10:06:47.910Z,56.94
2018-04-28T10:09:16.304Z,56.87
2018-04-28T10:11:44.695Z,56.83
2018-04-28T10:14:13.538Z,56.69
2018-04-28T10:16:41.934Z,56.43
2018-04-28T10:19:10.629Z,56.20
2018-04-28T10:21:38.994Z,55.67
2018-04-28T10:24:07.525Z,55.56
2018-04-28T10:26:35.905Z,55.29
2018-04-28T10:29:04.612Z,54.96
2018-04-28T10:31:33.231Z,54.19
2018-04-28T10:34:02.694Z,53.80
2018-04-28T10:36:31.359Z,53.31
2018-04-28T10:38:59.734Z,53.16
2018-04-28T10:41:28.111Z,52.85
2018-04-28T10:43:56.870Z,52.59
2018-04-28T10:46:28.640Z,52.29
2018-04-28T10:48:58.140Z,51.90
2018-04-28T10:51:26.500Z,51.64
2018-04-28T10:53:54.995Z,51.33
2018-04-28T10:56:23.686Z,51.32
2018-04-28T10:58:52.243Z,51.33
2018-04-28T11:01:21.264Z,51.04
2018-04-28T11:03:49.812Z,50.79
2018-04-28T11:06:19.754Z,50.73
2018-04-28T11:11:24.778Z,50.63
2018-04-28T11:13:53.787Z,50.64
2018-04-28T11:16:22.581Z,50.70
2018-04-28T11:18:51.194Z,50.39
2018-04-28T11:21:19.957Z,50.31
2018-04-28T11:23:48.335Z,49.88
2018-04-28T11:26:16.715Z,49.41
2018-04-28T11:28:45.096Z,48.99
2018-04-28T11:31:14.241Z,48.12
2018-04-28T11:33:42.962Z,47.84
2018-04-28T11:36:11.353Z,47.64
2018-04-28T11:38:39.712Z,47.63
2018-04-28T11:41:08.385Z,47.28
2018-04-28T11:43:37.568Z,46.91
2018-04-28T11:46:05.869Z,46.55
2018-04-28T11:48:34.526Z,46.12
2018-04-28T11:51:03.259Z,46.09
2018-04-28T11:53:31.892Z,45.81
2018-04-28T11:56:00.260Z,45.65
2018-04-28T11:58:28.714Z,44.88
2018-04-28T12:00:57.938Z,44.31
2018-04-28T12:03:26.321Z,43.98
2018-04-28T12:05:55.104Z,43.57
2018-04-28T12:08:23.465Z,43.32
2018-04-28T12:10:51.810Z,43.32
2018-04-28T12:13:20.177Z,42.66
2018-04-28T12:15:48.572Z,42.18
2018-04-28T12:18:16.940Z,41.48
2018-04-28T12:20:45.522Z,41.43
2018-04-28T12:23:13.871Z,41.09
2018-04-28T12:25:43.172Z,40.95
2018-04-28T12:28:11.554Z,40.94
2018-04-28T12:30:39.925Z,40.87
2018-04-28T12:33:08.291Z,40.72
2018-04-28T12:35:37.060Z,40.39
2018-04-28T12:38:05.449Z,40.13
2018-04-28T12:40:33.831Z,39.64
2018-04-28T12:43:02.194Z,39.28
2018-04-28T12:45:31.884Z,38.91
2018-04-28T12:48:00.304Z,38.30
2018-04-28T12:50:28.727Z,37.97
2018-04-28T12:52:57.035Z,37.22
2018-04-28T12:55:25.383Z,36.10
2018-04-28T12:57:53.731Z,36.24
2018-04-28T13:00:22.375Z,35.93
2018-04-28T13:02:50.727Z,35.27
2018-04-28T13:05:19.080Z,35.02
2018-04-28T13:07:47.568Z,34.98
2018-04-28T13:10:15.941Z,34.58
2018-04-28T13:12:44.304Z,34.03
2018-04-28T13:15:12.669Z,33.49
2018-04-28T13:17:41.052Z,32.82
2018-04-28T19:41:27.403Z,55.19
2018-04-28T19:43:55.914Z,55.58
2018-04-28T19:46:24.320Z,56.11
2018-04-28T19:48:53.099Z,56.68
2018-04-28T19:51:21.510Z,56.99
2018-04-28T19:53:50.345Z,57.52
2018-04-28T19:56:18.764Z,57.88
2018-04-28T19:58:47.141Z,58.22
2018-04-28T20:01:16.313Z,58.43
2018-04-28T20:03:44.832Z,58.57
2018-04-28T20:06:13.821Z,58.83
2018-04-28T20:08:42.271Z,58.94
2018-04-28T20:11:10.637Z,59.16
2018-04-28T20:13:39.750Z,59.32
2018-04-28T20:16:08.956Z,59.61
2018-04-28T20:18:37.751Z,59.93
2018-04-28T20:21:06.363Z,60.20
2018-04-28T20:23:46.584Z,60.23
2018-04-28T20:26:15.040Z,60.31
2018-04-28T20:28:43.419Z,60.40
2018-04-28T20:31:12.339Z,60.59
2018-04-28T20:33:41.891Z,60.96
2018-04-28T20:36:10.342Z,61.33
2018-04-28T20:38:39.786Z,61.50
2018-04-28T20:41:08.179Z,61.61
2018-04-28T20:43:37.430Z,61.75
2018-04-28T20:46:06.201Z,61.85
2018-04-28T20:48:35.004Z,61.86
2018-04-28T20:51:03.401Z,62.15
2018-04-28T20:53:35.952Z,62.30
2018-04-28T20:56:05.448Z,62.48
2018-04-28T20:58:34.646Z,62.60
2018-04-28T21:01:03.204Z,62.92
2018-04-28T21:03:32.547Z,63.20
2018-04-28T21:06:03.632Z,63.39
2018-04-28T21:08:32.110Z,63.59
2018-04-28T21:11:01.171Z,63.84
2018-04-28T21:13:29.605Z,64.05
2018-04-28T21:15:57.985Z,64.14
2018-04-28T21:18:27.219Z,64.21
2018-04-28T21:20:56.367Z,64.34
2018-04-28T21:23:24.808Z,64.41
2018-04-28T21:25:53.395Z,64.52
2018-04-28T21:28:23.705Z,64.62
2018-04-28T21:30:52.147Z,64.92
2018-04-28T21:33:20.891Z,65.18
2018-04-28T21:35:49.263Z,65.20
2018-04-28T21:38:18.747Z,65.22
2018-04-28T21:40:48.518Z,65.23
2018-04-28T21:43:17.562Z,65.24
2018-04-28T21:45:46.888Z,65.28
2018-04-28T21:48:16.077Z,65.41
2018-04-28T21:50:45.130Z,65.53
2018-04-28T21:53:13.505Z,65.64
2018-04-28T21:55:42.521Z,65.90
2018-04-28T21:58:11.359Z,66.11
2018-04-28T22:00:39.796Z,66.24
2018-04-28T22:03:09.324Z,66.23
2018-04-28T22:05:38.822Z,66.19
2018-04-28T22:08:07.645Z,66.20
2018-04-28T22:10:37.603Z,66.24
2018-04-28T22:13:06.892Z,66.43
2018-04-28T22:15:35.365Z,66.47
2018-04-28T22:18:04.719Z,66.60
2018-04-28T22:20:33.714Z,66.89
2018-04-28T22:23:02.707Z,66.98
2018-04-28T22:25:31.171Z,67.06
2018-04-28T22:27:59.545Z,67.18
2018-04-28T22:30:28.422Z,67.28
2018-04-28T22:32:57.141Z,67.38
2018-04-28T22:35:25.633Z,67.50
2018-04-28T22:37:54.353Z,67.48
2018-04-28T22:40:22.739Z,67.39
2018-04-28T22:42:51.109Z,67.43
2018-04-28T22:45:20.589Z,67.43
2018-04-28T22:47:49.749Z,67.63
2018-04-28T22:50:18.122Z,67.93
2018-04-28T22:52:46.611Z,67.92
2018-04-28T22:55:15.371Z,68.04
2018-04-28T22:57:43.930Z,68.04
2018-04-28T23:00:13.895Z,68.21
2018-04-28T23:02:45.005Z,68.37
2018-04-28T23:05:13.742Z,68.41
2018-04-28T23:07:42.541Z,68.48
2018-04-28T23:10:11.575Z,68.58
2018-04-28T23:12:40.387Z,68.69
2018-04-28T23:15:09.534Z,68.83
2018-04-28T23:17:38.438Z,68.92
2018-04-28T23:20:06.913Z,68.91
2018-04-28T23:22:36.087Z,68.90
2018-04-28T23:25:05.192Z,69.05
2018-04-28T23:27:33.887Z,69.21
2018-04-28T23:30:02.738Z,69.21
2018-04-28T23:32:31.674Z,69.29
2018-04-28T23:35:01.031Z,69.44
2018-04-28T23:37:29.399Z,69.55
2018-04-28T23:39:57.985Z,69.50
2018-04-28T23:42:26.516Z,69.51
2018-04-28T23:44:56.405Z,69.57
2018-04-28T23:47:24.918Z,69.63
2018-04-28T23:49:54.314Z,69.68
2018-04-28T23:52:23.224Z,69.71
2018-04-28T23:54:51.897Z,69.81
2018-04-28T23:57:20.268Z,69.86
2018-04-28T23:59:48.930Z,69.89
